Time;durP1;ratioP1;P1;durP2;ratioP2;P2;SDS_P1;SDS_P2;PMS_P1;PMS_P2;Temp;Humidity;BMP_temperature;BMP_pressure;BME280_temperature;BME280_humidity;BME280_pressure;Samples;Min_cycle;Max_cycle;Signal;HPM_P1;HPM_P2
2023/10/27 00:00:40;;;;;;;26.73;25.83;;;12.70;99.90;;;;;;5029497;28;20212;-64
2023/10/27 00:03:07;;;;;;;29.27;28.23;;;12.70;99.90;;;;;;5029478;28;20236;-64
2023/10/27 00:05:33;;;;;;;27.10;26.13;;;12.70;99.90;;;;;;5029580;28;20574;-64
2023/10/27 00:08:03;;;;;;;27.30;26.30;;;12.60;99.90;;;;;;5029371;28;20219;-64
2023/10/27 00:10:29;;;;;;;25.87;24.87;;;12.60;99.90;;;;;;5031848;28;20209;-65
2023/10/27 00:12:56;;;;;;;30.67;29.57;;;12.60;99.90;;;;;;5032532;28;20224;-64
2023/10/27 00:15:23;;;;;;;24.23;23.33;;;12.60;99.90;;;;;;5032765;28;20219;-64
2023/10/27 00:17:50;;;;;;;28.30;27.30;;;12.60;99.90;;;;;;5033205;28;20594;-65
2023/10/27 00:20:16;;;;;;;31.10;30.00;;;12.60;99.90;;;;;;5032952;28;20292;-64
2023/10/27 00:22:43;;;;;;;25.70;24.80;;;12.60;99.90;;;;;;5032965;28;20235;-64
2023/10/27 00:25:12;;;;;;;26.30;25.40;;;12.50;99.90;;;;;;5032855;28;20322;-66
2023/10/27 00:27:39;;;;;;;26.47;25.57;;;12.50;99.90;;;;;;5032684;28;20213;-65
2023/10/27 00:30:07;;;;;;;29.83;28.83;;;12.60;99.90;;;;;;5032651;28;20216;-65
2023/10/27 00:32:34;;;;;;;29.27;28.17;;;12.60;99.90;;;;;;5033263;28;20247;-65
2023/10/27 00:35:01;;;;;;;28.00;27.03;;;12.60;99.90;;;;;;5033338;28;20212;-64
2023/10/27 00:37:27;;;;;;;27.63;26.67;;;12.60;99.90;;;;;;5032659;28;20721;-65
2023/10/27 00:39:54;;;;;;;29.83;28.80;;;12.60;99.90;;;;;;5033025;28;20578;-65
2023/10/27 00:42:22;;;;;;;29.83;28.80;;;12.50;99.90;;;;;;5032384;28;20212;-64
2023/10/27 00:44:49;;;;;;;29.23;28.23;;;12.50;99.90;;;;;;5032662;28;20570;-65
2023/10/27 00:47:15;;;;;;;27.37;26.43;;;12.60;99.90;;;;;;5032825;28;20710;-65
2023/10/27 00:49:43;;;;;;;30.20;29.13;;;12.50;99.90;;;;;;5032501;28;20212;-65
2023/10/27 00:52:10;;;;;;;24.97;24.10;;;12.50;99.90;;;;;;5031969;28;20745;-65
2023/10/27 00:54:37;;;;;;;28.20;27.20;;;12.50;99.90;;;;;;5032376;28;20213;-65
2023/10/27 00:57:05;;;;;;;28.80;27.80;;;12.60;99.90;;;;;;5032171;28;20232;-63
2023/10/27 00:59:35;;;;;;;28.77;27.77;;;12.60;99.90;;;;;;5032499;28;20212;-64
2023/10/27 01:02:01;;;;;;;27.20;26.23;;;12.60;99.90;;;;;;5032020;28;20282;-64
2023/10/27 01:04:28;;;;;;;22.80;22.00;;;12.70;99.90;;;;;;5032429;28;20216;-64
2023/10/27 01:06:56;;;;;;;30.73;29.53;;;12.60;99.90;;;;;;5038197;28;20200;-63
2023/10/27 01:09:23;;;;;;;26.10;25.20;;;12.70;99.90;;;;;;5032564;28;20738;-64
2023/10/27 01:11:50;;;;;;;26.70;25.80;;;12.70;99.90;;;;;;5032023;28;20212;-64
2023/10/27 01:14:18;;;;;;;34.07;32.87;;;12.60;99.90;;;;;;5031691;28;20225;-64
2023/10/27 01:16:46;;;;;;;28.97;27.97;;;12.70;99.90;;;;;;5033187;28;20246;-66
2023/10/27 01:19:13;;;;;;;28.37;27.37;;;12.60;99.90;;;;;;5034365;28;20227;-64
2023/10/27 01:21:39;;;;;;;29.00;28.00;;;12.60;99.90;;;;;;5031865;28;20209;-64
2023/10/27 01:24:09;;;;;;;29.27;28.27;;;12.60;99.90;;;;;;5033211;28;20236;-64
2023/10/27 01:26:35;;;;;;;28.60;27.60;;;12.50;99.90;;;;;;5032642;28;20208;-64
2023/10/27 01:29:02;;;;;;;27.33;26.33;;;12.50;99.90;;;;;;5032621;28;20216;-64
2023/10/27 01:31:29;;;;;;;28.17;27.17;;;12.50;99.90;;;;;;5031556;28;20208;-64
2023/10/27 01:33:55;;;;;;;31.40;30.27;;;12.40;99.90;;;;;;5031546;28;20678;-63
2023/10/27 01:36:22;;;;;;;24.93;24.03;;;12.40;99.90;;;;;;5031648;28;20255;-64
2023/10/27 01:38:49;;;;;;;30.90;29.80;;;12.40;99.90;;;;;;5031736;28;20219;-64
2023/10/27 01:41:18;;;;;;;31.57;30.47;;;12.40;99.90;;;;;;5030838;28;20311;-65
2023/10/27 01:43:44;;;;;;;27.23;26.30;;;12.30;99.90;;;;;;5031483;28;20237;-65
2023/10/27 01:46:11;;;;;;;30.23;29.17;;;12.30;99.90;;;;;;5031194;28;20233;-64
2023/10/27 01:48:38;;;;;;;32.70;31.53;;;12.30;99.90;;;;;;5030810;28;20939;-64
2023/10/27 01:51:05;;;;;;;32.70;31.53;;;12.20;99.90;;;;;;5031178;28;20624;-66
2023/10/27 01:53:33;;;;;;;28.73;27.73;;;12.30;99.90;;;;;;5030270;28;20320;-65
2023/10/27 01:56:00;;;;;;;29.07;28.07;;;12.20;99.90;;;;;;5030200;28;20207;-64
2023/10/27 01:58:29;;;;;;;29.17;28.13;;;12.30;99.90;;;;;;5030684;28;20265;-64
2023/10/27 02:00:56;;;;;;;29.63;28.53;;;12.30;99.90;;;;;;5030494;28;20217;-65
2023/10/27 02:03:23;;;;;;;31.83;30.70;;;12.30;99.90;;;;;;5030290;28;20233;-65
2023/10/27 02:05:49;;;;;;;30.47;29.40;;;12.30;99.90;;;;;;5030825;28;20212;-66
2023/10/27 02:08:17;;;;;;;31.43;30.30;;;12.30;99.90;;;;;;5030665;28;20348;-64
2023/10/27 02:10:44;;;;;;;26.67;25.77;;;12.20;99.90;;;;;;5031049;28;20244;-65
2023/10/27 02:13:11;;;;;;;31.73;30.60;;;12.20;99.90;;;;;;5030423;28;20235;-65
2023/10/27 02:15:39;;;;;;;28.53;27.43;;;12.30;99.90;;;;;;5030412;28;20263;-64
2023/10/27 02:18:06;;;;;;;28.87;27.83;;;12.30;99.90;;;;;;5030560;28;20233;-64
2023/10/27 02:20:33;;;;;;;27.63;26.63;;;12.30;99.90;;;;;;5025445;28;20208;-64
2023/10/27 02:22:59;;;;;;;30.60;29.53;;;12.30;99.90;;;;;;5030071;28;20232;-65
2023/10/27 02:25:26;;;;;;;27.27;26.30;;;12.30;99.90;;;;;;5030098;28;20212;-65
2023/10/27 02:27:53;;;;;;;28.50;27.50;;;12.20;99.90;;;;;;5030218;28;20790;-64
2023/10/27 02:30:19;;;;;;;26.33;25.43;;;12.20;99.90;;;;;;5030045;28;20223;-65
2023/10/27 02:32:47;;;;;;;29.13;28.13;;;12.20;99.90;;;;;;5029659;28;20232;-65
2023/10/27 02:35:14;;;;;;;27.07;26.10;;;12.30;99.90;;;;;;5030179;28;20208;-64
2023/10/27 02:37:41;;;;;;;23.80;22.97;;;12.30;99.90;;;;;;5030374;28;20235;-65
2023/10/27 02:40:08;;;;;;;28.63;27.67;;;12.30;99.90;;;;;;5030691;28;20221;-65
2023/10/27 02:42:39;;;;;;;27.23;26.30;;;12.30;99.90;;;;;;5030834;28;20232;-64
2023/10/27 02:45:07;;;;;;;25.80;24.90;;;12.40;99.90;;;;;;5031245;28;20212;-65
2023/10/27 02:47:33;;;;;;;24.07;23.23;;;12.40;99.90;;;;;;5031072;28;20223;-66
2023/10/27 02:50:02;;;;;;;26.63;25.63;;;12.30;99.90;;;;;;5030831;28;20204;-66
2023/10/27 02:52:28;;;;;;;25.87;24.97;;;12.30;99.90;;;;;;5027401;28;20252;-65
2023/10/27 02:54:55;;;;;;;27.50;26.53;;;12.30;99.90;;;;;;5031072;28;20204;-65
2023/10/27 02:57:22;;;;;;;24.80;23.97;;;12.30;99.90;;;;;;5031242;28;20228;-66
2023/10/27 02:59:48;;;;;;;27.10;26.13;;;12.20;99.90;;;;;;5031349;28;20224;-66
2023/10/27 03:02:15;;;;;;;25.37;24.50;;;12.20;99.90;;;;;;5030893;28;20216;-66
2023/10/27 03:04:42;;;;;;;25.10;24.20;;;12.10;99.90;;;;;;5031565;28;20652;-65
2023/10/27 03:07:10;;;;;;;26.20;25.27;;;12.20;99.90;;;;;;5031872;28;20212;-66
2023/10/27 03:09:37;;;;;;;26.67;25.73;;;12.20;99.90;;;;;;5031659;28;20212;-64
2023/10/27 03:12:04;;;;;;;30.60;29.53;;;12.20;99.90;;;;;;5030582;28;20219;-65
2023/10/27 03:14:30;;;;;;;25.57;24.70;;;12.30;99.90;;;;;;5031333;28;20224;-67
2023/10/27 03:16:57;;;;;;;26.43;25.50;;;12.20;99.90;;;;;;5031369;28;20228;-65
2023/10/27 03:19:24;;;;;;;29.87;28.83;;;12.20;99.90;;;;;;5031134;28;20208;-64
2023/10/27 03:21:50;;;;;;;29.57;28.53;;;12.20;99.90;;;;;;5030472;28;20213;-66
2023/10/27 03:24:18;;;;;;;27.80;26.83;;;12.30;99.90;;;;;;5030819;28;20232;-64
2023/10/27 03:26:45;;;;;;;26.63;25.70;;;12.20;99.90;;;;;;5030837;28;20664;-66
2023/10/27 03:29:12;;;;;;;26.73;25.80;;;12.30;99.90;;;;;;5030802;28;20243;-65
2023/10/27 03:31:39;;;;;;;26.70;25.77;;;12.30;99.90;;;;;;5030603;28;20594;-65
2023/10/27 03:34:05;;;;;;;23.77;22.93;;;12.30;99.90;;;;;;5031201;28;20224;-65
2023/10/27 03:36:32;;;;;;;25.70;24.83;;;12.30;99.90;;;;;;5030755;28;20224;-65
2023/10/27 03:38:59;;;;;;;25.33;24.47;;;12.30;99.90;;;;;;5030712;28;20233;-65
2023/10/27 03:41:27;;;;;;;26.27;25.33;;;12.20;99.90;;;;;;5030619;28;20216;-65
2023/10/27 03:43:53;;;;;;;28.27;27.30;;;12.20;99.90;;;;;;5030803;28;20235;-65
2023/10/27 03:46:20;;;;;;;27.13;26.20;;;12.10;99.90;;;;;;5034523;28;20212;-64
2023/10/27 03:48:48;;;;;;;26.93;25.97;;;12.00;99.90;;;;;;5034495;28;20209;-65
2023/10/27 03:51:15;;;;;;;26.73;25.83;;;12.00;99.90;;;;;;5034073;28;20223;-65
2023/10/27 03:53:42;;;;;;;25.57;24.63;;;12.00;99.90;;;;;;5034507;28;20251;-65
2023/10/27 03:56:08;;;;;;;25.80;24.93;;;12.00;99.90;;;;;;5035091;28;20216;-65
2023/10/27 03:58:37;;;;;;;26.60;25.67;;;12.20;99.90;;;;;;5034982;28;20233;-65
2023/10/27 04:01:04;;;;;;;26.10;25.17;;;12.10;99.90;;;;;;5034700;28;20228;-65
2023/10/27 04:03:31;;;;;;;24.70;23.83;;;12.10;99.90;;;;;;5034924;28;20244;-64
2023/10/27 04:05:58;;;;;;;25.43;24.57;;;12.00;99.90;;;;;;5034737;28;20304;-64
2023/10/27 04:08:25;;;;;;;24.33;23.47;;;12.10;99.90;;;;;;5034804;28;20204;-64
2023/10/27 04:10:52;;;;;;;24.70;23.87;;;12.10;99.90;;;;;;5035569;28;20209;-65
2023/10/27 04:13:19;;;;;;;24.60;23.73;;;12.10;99.90;;;;;;5034224;28;20263;-67
2023/10/27 04:15:47;;;;;;;23.63;22.80;;;12.10;99.90;;;;;;5034426;28;20204;-66
2023/10/27 04:18:14;;;;;;;25.97;25.03;;;12.10;99.90;;;;;;5034009;28;20706;-65
2023/10/27 04:20:40;;;;;;;26.20;25.30;;;12.10;99.90;;;;;;5033588;28;20219;-65
2023/10/27 04:23:09;;;;;;;22.60;21.80;;;12.10;99.90;;;;;;5033448;28;20240;-64
2023/10/27 04:25:36;;;;;;;26.83;25.90;;;12.20;99.90;;;;;;5033779;28;20239;-66
2023/10/27 04:28:04;;;;;;;23.33;22.53;;;12.20;99.90;;;;;;5033313;28;20205;-64
2023/10/27 04:30:31;;;;;;;25.63;24.73;;;12.20;99.90;;;;;;5033202;28;20262;-66
2023/10/27 04:33:00;;;;;;;23.33;22.53;;;12.20;99.90;;;;;;5033206;28;20239;-65
2023/10/27 04:35:27;;;;;;;28.67;27.70;;;12.20;99.90;;;;;;5030515;28;20216;-67
2023/10/27 04:37:56;;;;;;;34.40;33.17;;;12.30;99.90;;;;;;5033375;28;20327;-65
2023/10/27 04:40:24;;;;;;;28.97;27.97;;;12.20;99.90;;;;;;5033013;28;20702;-65
2023/10/27 04:42:51;;;;;;;28.10;27.13;;;12.30;99.90;;;;;;5032932;28;20765;-65
2023/10/27 04:45:17;;;;;;;28.97;27.97;;;12.30;99.90;;;;;;5033181;28;20208;-65
2023/10/27 04:47:44;;;;;;;23.47;22.67;;;12.30;99.90;;;;;;5027920;28;20209;-65
2023/10/27 04:50:12;;;;;;;24.60;23.77;;;12.30;99.90;;;;;;5035374;28;20232;-65
2023/10/27 04:52:39;;;;;;;22.93;22.13;;;12.40;99.90;;;;;;5033092;28;20228;-65
2023/10/27 04:55:07;;;;;;;24.43;23.63;;;12.40;99.90;;;;;;5033720;28;20224;-65
2023/10/27 04:57:35;;;;;;;21.80;21.00;;;12.30;99.90;;;;;;5034188;28;20229;-66
2023/10/27 05:00:04;;;;;;;22.93;22.13;;;12.30;99.90;;;;;;5034447;28;20350;-65
2023/10/27 05:02:30;;;;;;;20.40;19.70;;;12.30;99.90;;;;;;5033752;28;20244;-64
2023/10/27 05:04:57;;;;;;;21.43;20.73;;;12.30;99.90;;;;;;5035006;28;20220;-66
2023/10/27 05:07:26;;;;;;;21.13;20.43;;;12.30;99.90;;;;;;5034424;28;20303;-65
2023/10/27 05:09:52;;;;;;;21.27;20.53;;;12.40;99.90;;;;;;5033048;28;20209;-67
2023/10/27 05:12:19;;;;;;;19.58;18.90;;;12.30;99.90;;;;;;5033285;28;20205;-67
2023/10/27 05:14:46;;;;;;;19.13;18.50;;;12.30;99.90;;;;;;5033720;28;20226;-66
2023/10/27 05:17:13;;;;;;;20.80;20.10;;;12.40;99.90;;;;;;5038496;28;20667;-68
2023/10/27 05:19:40;;;;;;;17.83;17.23;;;12.30;99.90;;;;;;5033137;28;20236;-68
2023/10/27 05:22:07;;;;;;;17.00;16.43;;;12.40;99.90;;;;;;5032489;28;20219;-67
2023/10/27 05:24:35;;;;;;;17.97;17.37;;;12.40;99.90;;;;;;5032379;28;20213;-68
2023/10/27 05:27:02;;;;;;;16.70;16.10;;;12.40;99.90;;;;;;5032889;28;20205;-67
2023/10/27 05:29:29;;;;;;;14.23;13.73;;;12.50;99.90;;;;;;5033115;28;20205;-68
2023/10/27 05:31:56;;;;;;;16.10;15.57;;;12.50;99.90;;;;;;5027951;28;20208;-68
2023/10/27 05:34:22;;;;;;;18.00;17.40;;;12.50;99.90;;;;;;5032117;28;20228;-70
2023/10/27 05:36:49;;;;;;;16.50;15.93;;;12.50;99.90;;;;;;5031768;28;20209;-68
2023/10/27 05:39:17;;;;;;;16.77;16.17;;;12.50;99.90;;;;;;5031040;28;20232;-69
2023/10/27 05:41:46;;;;;;;17.47;16.87;;;12.50;99.90;;;;;;5030730;28;20582;-68
2023/10/27 05:44:13;;;;;;;15.50;15.00;;;12.50;99.90;;;;;;5034777;28;20568;-66
2023/10/27 05:46:40;;;;;;;17.03;16.43;;;12.50;99.90;;;;;;5039502;28;20208;-67
2023/10/27 05:49:07;;;;;;;13.80;13.30;;;12.50;99.90;;;;;;5039399;28;20208;-66
2023/10/27 05:51:34;;;;;;;13.83;13.33;;;12.60;99.90;;;;;;5037766;28;20204;-67
2023/10/27 05:54:01;;;;;;;15.03;14.53;;;12.60;99.90;;;;;;5033343;28;20251;-67
2023/10/27 05:56:28;;;;;;;14.23;13.73;;;12.60;99.90;;;;;;5033001;28;20216;-67
2023/10/27 05:58:56;;;;;;;14.70;14.20;;;12.60;99.90;;;;;;5033138;28;20260;-67
2023/10/27 06:01:22;;;;;;;14.37;13.87;;;12.60;99.90;;;;;;5032531;28;20221;-64
2023/10/27 06:03:49;;;;;;;13.10;12.70;;;12.60;99.90;;;;;;5032625;28;20239;-65
2023/10/27 06:06:17;;;;;;;13.60;13.17;;;12.60;99.90;;;;;;5033313;28;20208;-68
2023/10/27 06:08:45;;;;;;;14.93;14.43;;;12.70;99.90;;;;;;5031395;28;20228;-68
2023/10/27 06:11:12;;;;;;;14.50;14.00;;;12.70;99.90;;;;;;5031406;28;20208;-67
2023/10/27 06:13:39;;;;;;;13.37;12.97;;;12.70;99.90;;;;;;5031658;28;20266;-68
2023/10/27 06:16:08;;;;;;;12.47;12.07;;;12.70;99.90;;;;;;5032746;28;20298;-68
2023/10/27 06:18:35;;;;;;;12.90;12.50;;;12.70;99.90;;;;;;5031287;28;20259;-68
2023/10/27 06:21:01;;;;;;;12.63;12.23;;;12.70;99.90;;;;;;5031258;28;20213;-69
2023/10/27 06:23:28;;;;;;;12.80;12.40;;;12.70;99.90;;;;;;5030987;28;20232;-69
2023/10/27 06:25:55;;;;;;;13.10;12.70;;;12.80;99.90;;;;;;5031210;28;20223;-67
2023/10/27 06:28:21;;;;;;;13.60;13.13;;;12.80;99.90;;;;;;5031369;28;20215;-68
2023/10/27 06:30:48;;;;;;;13.00;12.60;;;12.80;99.90;;;;;;5031220;28;20217;-67
2023/10/27 06:33:16;;;;;;;13.27;12.77;;;12.80;99.90;;;;;;5030783;28;20229;-67
2023/10/27 06:35:43;;;;;;;13.10;12.70;;;12.90;99.90;;;;;;5031033;28;20216;-67
2023/10/27 06:38:10;;;;;;;12.63;12.13;;;12.80;99.90;;;;;;5030812;28;20228;-66
2023/10/27 06:40:36;;;;;;;12.57;12.17;;;12.80;99.90;;;;;;5031230;28;20216;-67
2023/10/27 06:43:03;;;;;;;12.23;11.83;;;12.90;99.90;;;;;;5030749;28;20235;-66
2023/10/27 06:45:30;;;;;;;12.60;12.20;;;13.00;99.90;;;;;;5030838;28;20212;-66
2023/10/27 06:47:57;;;;;;;12.93;12.53;;;13.00;99.90;;;;;;5031167;28;20579;-68
2023/10/27 06:50:25;;;;;;;13.03;12.57;;;12.90;99.90;;;;;;5030729;28;20217;-64
2023/10/27 06:52:52;;;;;;;13.80;13.30;;;12.90;99.90;;;;;;5029324;28;20229;-66
2023/10/27 06:55:19;;;;;;;13.00;12.60;;;12.90;99.90;;;;;;5030421;28;20212;-66
2023/10/27 06:57:45;;;;;;;13.50;13.03;;;12.90;99.90;;;;;;5030610;28;20243;-67
2023/10/27 07:00:13;;;;;;;12.97;12.57;;;13.00;99.90;;;;;;5030337;28;20228;-67
2023/10/27 07:02:39;;;;;;;13.10;12.70;;;13.00;99.90;;;;;;5030050;28;20691;-68
2023/10/27 07:05:08;;;;;;;12.60;12.20;;;13.00;99.90;;;;;;5030668;28;20208;-65
2023/10/27 07:07:36;;;;;;;13.00;12.60;;;13.10;99.90;;;;;;5030333;28;20258;-67
2023/10/27 07:10:04;;;;;;;13.03;12.57;;;13.10;99.90;;;;;;5030500;28;20205;-67
2023/10/27 07:12:31;;;;;;;13.60;13.13;;;13.10;99.90;;;;;;5029893;28;20256;-65
2023/10/27 07:14:57;;;;;;;12.87;12.37;;;13.10;99.90;;;;;;5030483;28;20212;-67
2023/10/27 07:17:24;;;;;;;13.40;12.90;;;13.10;99.90;;;;;;5030523;28;20567;-65
2023/10/27 07:19:51;;;;;;;14.50;14.00;;;13.10;99.90;;;;;;5033474;28;20224;-66
2023/10/27 07:22:19;;;;;;;17.17;16.57;;;13.00;99.90;;;;;;5033795;28;20300;-64
2023/10/27 07:24:47;;;;;;;20.03;19.33;;;12.90;99.90;;;;;;5036772;28;20300;-67
2023/10/27 07:27:14;;;;;;;20.67;19.97;;;12.80;99.90;;;;;;5039488;28;20201;-67
2023/10/27 07:29:41;;;;;;;25.47;24.57;;;12.60;99.90;;;;;;5035837;28;20249;-66
2023/10/27 07:32:07;;;;;;;33.07;31.90;;;12.60;99.90;;;;;;5042699;28;20215;-70
2023/10/27 07:34:34;;;;;;;23.37;22.57;;;12.60;99.90;;;;;;5044628;28;20212;-65
2023/10/27 07:37:04;;;;;;;33.87;32.70;;;12.60;99.90;;;;;;5037918;28;20216;-64
2023/10/27 07:39:30;;;;;;;26.77;25.83;;;12.70;99.90;;;;;;5034453;28;20312;-65
2023/10/27 07:41:58;;;;;;;20.43;19.73;;;12.70;99.90;;;;;;5033897;28;20216;-68
2023/10/27 07:44:25;;;;;;;17.43;16.73;;;12.80;99.90;;;;;;5033998;28;20246;-65
2023/10/27 07:46:53;;;;;;;17.57;16.97;;;12.80;99.90;;;;;;5034251;28;20213;-66
2023/10/27 07:49:20;;;;;;;17.07;16.47;;;12.90;99.90;;;;;;5034233;28;20228;-66
2023/10/27 07:51:48;;;;;;;17.93;17.33;;;13.00;99.90;;;;;;5034013;28;20631;-67
2023/10/27 07:54:15;;;;;;;15.60;15.10;;;13.20;99.90;;;;;;5033855;28;20607;-66
2023/10/27 07:56:42;;;;;;;23.67;22.87;;;13.20;99.90;;;;;;5033864;28;20256;-65
2023/10/27 07:59:10;;;;;;;16.77;16.17;;;13.30;99.90;;;;;;5034096;28;20220;-66
2023/10/27 08:01:36;;;;;;;18.00;17.37;;;13.30;99.90;;;;;;5033484;28;20232;-67
2023/10/27 08:04:05;;;;;;;16.87;16.27;;;13.20;99.90;;;;;;5033669;28;20655;-66
2023/10/27 08:06:32;;;;;;;15.53;15.00;;;13.20;99.90;;;;;;5033793;28;20213;-67
2023/10/27 08:08:59;;;;;;;13.90;13.40;;;13.20;99.90;;;;;;5033882;28;20215;-68
2023/10/27 08:11:26;;;;;;;15.87;15.37;;;13.20;99.90;;;;;;5033588;28;20243;-64
2023/10/27 08:13:52;;;;;;;16.77;16.20;;;13.30;99.90;;;;;;5033535;28;20233;-67
2023/10/27 08:16:20;;;;;;;13.87;13.37;;;13.30;99.90;;;;;;5033952;28;20213;-67
2023/10/27 08:18:47;;;;;;;14.33;13.83;;;13.40;99.90;;;;;;5033683;28;20714;-67
2023/10/27 08:21:14;;;;;;;12.20;11.80;;;13.40;99.90;;;;;;5033646;28;20230;-64
2023/10/27 08:23:40;;;;;;;12.63;12.23;;;13.50;99.90;;;;;;5034061;28;20279;-67
2023/10/27 08:26:07;;;;;;;12.37;11.97;;;13.60;99.90;;;;;;5033511;28;20201;-66
2023/10/27 08:28:34;;;;;;;12.20;11.80;;;13.60;99.90;;;;;;5032000;28;20656;-65
2023/10/27 08:31:01;;;;;;;11.57;11.17;;;13.80;99.90;;;;;;5028086;28;20228;-67
2023/10/27 08:33:29;;;;;;;11.30;10.90;;;14.00;99.90;;;;;;5031824;28;20240;-66
2023/10/27 08:36:03;;;;;;;11.43;11.03;;;14.10;99.90;;;;;;5037345;28;20209;-67
2023/10/27 08:38:31;;;;;;;11.43;11.03;;;14.00;99.90;;;;;;5038081;28;20219;-68
2023/10/27 08:40:58;;;;;;;11.40;11.00;;;14.00;99.90;;;;;;5044903;28;20208;-66
2023/10/27 08:43:25;;;;;;;11.90;11.50;;;14.00;99.90;;;;;;5045060;28;20220;-65
2023/10/27 08:45:52;;;;;;;12.23;11.83;;;13.90;99.90;;;;;;5046059;28;20205;-66
2023/10/27 08:48:25;;;;;;;12.00;11.60;;;14.00;99.90;;;;;;5040576;28;20205;-65
2023/10/27 08:50:57;;;;;;;11.63;11.23;;;14.00;99.90;;;;;;5037992;28;20606;-62
2023/10/27 08:53:24;;;;;;;12.17;11.77;;;14.10;99.90;;;;;;5033615;28;20232;-62
2023/10/27 08:55:51;;;;;;;12.97;12.57;;;14.20;99.90;;;;;;5033078;28;20230;-66
2023/10/27 08:58:18;;;;;;;12.70;12.30;;;14.50;99.90;;;;;;5029292;28;20220;-67
2023/10/27 09:00:48;;;;;;;13.47;12.97;;;14.80;99.90;;;;;;5027880;28;20227;-63
2023/10/27 09:03:15;;;;;;;13.60;13.00;;;15.00;99.90;;;;;;5032209;28;20302;-65
2023/10/27 09:05:42;;;;;;;13.73;13.23;;;15.10;99.90;;;;;;5031871;28;20209;-67
2023/10/27 09:08:11;;;;;;;13.33;12.83;;;15.10;99.90;;;;;;5030044;28;20208;-67
2023/10/27 09:10:38;;;;;;;13.77;13.27;;;15.10;99.90;;;;;;5032148;28;20197;-66
2023/10/27 09:13:05;;;;;;;14.37;13.87;;;15.10;99.90;;;;;;5032192;28;20251;-66
2023/10/27 09:15:51;;;;;;;14.97;14.47;;;15.30;99.90;;;;;;5032455;28;20734;-66
2023/10/27 09:18:18;;;;;;;13.80;13.30;;;15.50;99.90;;;;;;5031931;28;20208;-65
2023/10/27 09:20:50;;;;;;;13.53;13.10;;;15.80;99.90;;;;;;5031365;28;20228;-65
2023/10/27 09:23:19;;;;;;;13.37;12.87;;;16.00;99.90;;;;;;5032243;28;20583;-67
2023/10/27 09:25:46;;;;;;;13.80;13.30;;;16.20;99.90;;;;;;5033081;28;20238;-65
2023/10/27 09:28:14;;;;;;;13.43;13.03;;;16.20;99.90;;;;;;5032313;28;20241;-68
2023/10/27 09:30:42;;;;;;;20.33;19.33;;;16.20;99.90;;;;;;5032161;28;20235;-67
2023/10/27 09:33:16;;;;;;;12.80;12.40;;;15.90;99.90;;;;;;5031641;28;20263;-69
2023/10/27 09:35:44;;;;;;;13.40;12.90;;;15.80;99.90;;;;;;5032332;28;20208;-67
2023/10/27 09:38:12;;;;;;;13.43;12.93;;;15.70;99.90;;;;;;5032399;28;20212;-69
2023/10/27 09:40:41;;;;;;;13.10;12.60;;;15.60;99.90;;;;;;5032099;28;20232;-68
2023/10/27 09:43:09;;;;;;;12.83;12.43;;;15.40;99.90;;;;;;5030533;28;20236;-66
2023/10/27 09:45:37;;;;;;;13.53;13.03;;;15.50;99.90;;;;;;5031834;28;20620;-66
2023/10/27 09:48:06;;;;;;;13.20;12.70;;;15.80;99.90;;;;;;5032242;28;20295;-67
2023/10/27 09:50:33;;;;;;;12.97;12.47;;;15.90;99.90;;;;;;5032044;28;20208;-66
2023/10/27 09:53:01;;;;;;;12.90;12.40;;;16.20;99.90;;;;;;5031498;28;20765;-65
2023/10/27 09:55:28;;;;;;;12.70;12.23;;;16.20;99.90;;;;;;5031936;28;20243;-65
2023/10/27 09:57:57;;;;;;;12.80;12.40;;;16.10;99.90;;;;;;5032146;28;20327;-67
2023/10/27 10:00:27;;;;;;;12.30;11.90;;;16.20;99.90;;;;;;5031575;28;20250;-66
2023/10/27 10:02:55;;;;;;;12.50;12.00;;;16.20;99.90;;;;;;5031232;28;20286;-67
2023/10/27 10:05:23;;;;;;;12.70;12.20;;;16.30;99.90;;;;;;5031912;28;20212;-68
2023/10/27 10:07:54;;;;;;;12.40;12.00;;;16.40;99.90;;;;;;5031721;28;20214;-67
2023/10/27 10:10:32;;;;;;;13.00;12.50;;;16.60;99.90;;;;;;5032018;28;21528;-67
2023/10/27 10:13:02;;;;;;;13.33;12.83;;;16.80;99.90;;;;;;5027963;28;20359;-67
2023/10/27 10:15:30;;;;;;;12.40;12.00;;;16.60;99.90;;;;;;5031895;28;20208;-66
2023/10/27 10:17:56;;;;;;;12.80;12.30;;;16.60;99.90;;;;;;5031521;28;20216;-65
2023/10/27 10:20:57;;;;;;;14.07;13.57;;;16.80;99.90;;;;;;5031164;28;20228;-67
2023/10/27 10:23:44;;;;;;;13.93;13.43;;;17.00;99.90;;;;;;5031233;28;20732;-65
2023/10/27 10:26:11;;;;;;;13.20;12.70;;;17.10;99.90;;;;;;5031202;28;20276;-68
2023/10/27 10:28:41;;;;;;;12.63;12.23;;;17.40;99.90;;;;;;5031059;28;20566;-66
2023/10/27 10:31:27;;;;;;;12.60;12.10;;;17.60;99.90;;;;;;5030714;28;20208;-68
2023/10/27 10:34:10;;;;;;;12.43;12.03;;;17.60;99.90;;;;;;5031315;28;20383;-66
2023/10/27 10:36:37;;;;;;;12.20;11.70;;;17.20;99.90;;;;;;5031194;28;20243;-66
2023/10/27 10:39:04;;;;;;;13.93;13.43;;;16.90;99.90;;;;;;5030871;28;20227;-68
2023/10/27 10:42:03;;;;;;;13.37;12.90;;;16.70;99.90;;;;;;5030771;28;20659;-65
2023/10/27 10:44:31;;;;;;;12.50;12.10;;;16.50;99.90;;;;;;5030896;28;20230;-67
2023/10/27 10:47:06;;;;;;;12.17;11.77;;;16.20;99.90;;;;;;5031058;28;20672;-68
2023/10/27 10:49:33;;;;;;;11.80;11.40;;;16.10;99.90;;;;;;5031000;28;20262;-64
2023/10/27 10:52:01;;;;;;;11.70;11.30;;;16.10;99.90;;;;;;5030763;28;20213;-67
2023/10/27 10:54:30;;;;;;;12.40;12.00;;;16.10;99.90;;;;;;5030582;28;20260;-67
2023/10/27 10:57:04;;;;;;;11.70;11.30;;;16.30;99.90;;;;;;5030971;28;20311;-68
2023/10/27 10:59:33;;;;;;;12.17;11.77;;;16.30;99.90;;;;;;5031108;28;20223;-67
2023/10/27 11:02:00;;;;;;;12.60;12.20;;;16.40;99.90;;;;;;5030520;28;20220;-67
2023/10/27 11:04:32;;;;;;;12.43;12.03;;;16.40;99.90;;;;;;5030432;28;20327;-65
2023/10/27 11:07:00;;;;;;;12.80;12.30;;;16.30;99.90;;;;;;5031132;28;20234;-66
2023/10/27 11:09:27;;;;;;;13.37;12.87;;;16.30;99.90;;;;;;5031031;28;20275;-67
2023/10/27 11:11:55;;;;;;;12.20;11.70;;;16.30;99.90;;;;;;5031291;28;20216;-68
2023/10/27 11:14:22;;;;;;;11.83;11.43;;;16.30;99.90;;;;;;5031049;28;20310;-68
2023/10/27 11:17:00;;;;;;;12.10;11.70;;;16.30;99.90;;;;;;5031311;28;20320;-66
2023/10/27 11:19:27;;;;;;;11.70;11.30;;;16.10;99.90;;;;;;5032254;28;20208;-69
2023/10/27 11:21:54;;;;;;;14.20;13.70;;;16.10;99.90;;;;;;5032200;28;20216;-66
2023/10/27 11:24:22;;;;;;;12.40;12.00;;;16.00;99.90;;;;;;5031405;28;20247;-67
2023/10/27 11:26:49;;;;;;;11.97;11.57;;;16.00;99.90;;;;;;5031119;28;20587;-66
2023/10/27 11:29:16;;;;;;;12.67;12.17;;;16.00;99.90;;;;;;5031785;28;20224;-68
2023/10/27 11:31:44;;;;;;;12.13;11.73;;;15.90;99.90;;;;;;5031970;28;20212;-67
2023/10/27 11:34:13;;;;;;;12.23;11.83;;;16.00;99.90;;;;;;5031136;28;20239;-68
2023/10/27 11:36:42;;;;;;;12.00;11.60;;;16.00;99.90;;;;;;5031356;28;20228;-67
2023/10/27 11:39:17;;;;;;;12.23;11.80;;;16.00;99.90;;;;;;5031044;28;20271;-67
2023/10/27 11:41:45;;;;;;;11.70;11.30;;;16.10;99.90;;;;;;5030824;28;20208;-65
2023/10/27 11:44:11;;;;;;;11.27;10.87;;;16.10;99.90;;;;;;5031455;28;20221;-67
2023/10/27 11:46:38;;;;;;;12.10;11.70;;;16.20;99.90;;;;;;5031038;28;20215;-66
2023/10/27 11:49:05;;;;;;;11.90;11.50;;;16.20;99.90;;;;;;5031677;28;20212;-68
2023/10/27 11:51:33;;;;;;;12.27;11.87;;;16.20;99.90;;;;;;5032186;28;20690;-67
2023/10/27 11:54:00;;;;;;;12.07;11.67;;;16.10;99.90;;;;;;5039981;28;20259;-68
2023/10/27 11:56:26;;;;;;;12.20;11.80;;;16.10;99.90;;;;;;5035893;28;20209;-66
2023/10/27 11:58:53;;;;;;;12.37;11.97;;;16.20;99.90;;;;;;5039628;28;20204;-66
2023/10/27 12:01:20;;;;;;;12.13;11.73;;;16.30;99.90;;;;;;5033913;28;20241;-65
2023/10/27 12:03:47;;;;;;;12.27;11.87;;;16.50;99.90;;;;;;5034406;28;20229;-66
2023/10/27 12:06:14;;;;;;;12.60;12.20;;;16.60;99.90;;;;;;5034104;28;20690;-68
2023/10/27 12:08:42;;;;;;;12.83;12.40;;;16.70;99.90;;;;;;5035222;28;20216;-66
2023/10/27 12:11:09;;;;;;;12.30;11.90;;;16.80;99.90;;;;;;5034446;28;20204;-67
2023/10/27 12:13:35;;;;;;;12.87;12.47;;;16.90;99.90;;;;;;5034317;28;20239;-66
2023/10/27 12:16:02;;;;;;;12.70;12.30;;;17.10;99.90;;;;;;5034430;28;20231;-67
2023/10/27 12:18:32;;;;;;;12.83;12.43;;;17.30;99.90;;;;;;5034462;28;20213;-66
2023/10/27 12:21:00;;;;;;;12.48;12.07;;;17.40;99.90;;;;;;5034565;28;20264;-66
2023/10/27 12:23:29;;;;;;;12.17;11.77;;;17.40;99.90;;;;;;5034838;28;20681;-67
2023/10/27 12:25:58;;;;;;;13.13;12.67;;;17.60;99.90;;;;;;5034439;28;20216;-69
2023/10/27 12:28:27;;;;;;;12.40;12.00;;;17.70;99.90;;;;;;5034348;28;20219;-68
2023/10/27 12:30:54;;;;;;;12.40;12.00;;;17.70;99.90;;;;;;5033695;28;20240;-66